Weather at South Fox Island Airport

Public forecast

Using degrees Fahrenheit for public forecast. Weather courtesy of forecast.io.

Closest aviation weather report (METAR) to South Fox Island Airport

Closest report is Beaver Island Airport, 20.8 nm (38.5 km) NNE. Retrieved 2021/01/28 07:35 UTC (19 minutes ago):

KSJX 280735Z AUTO 32009KT 10SM SCT024 SCT030 OVC036 M08/M13 A3048 RMK AO2 T10781135

Closest aviation forecast (TAF) to South Fox Island Airport

Closest forecast is Cherry Capital Airport, 40.9 nm (75.7 km) SSE. Retrieved 2021/01/28 06:42 UTC (1 hour ago):

TAF KTVC 280540Z 2806/2906 33007KT P6SM -SHSN OVC035 TEMPO 2806/2809 3SM -SHSN OVC028 FM280900 33007KT 6SM -SHSN OVC035 FM281300 32007KT P6SM VCSH OVC021 FM282200 32009KT P6SM VCSH OVC030 FM290000 31007KT P6SM OVC035